createdAt,value
2023-05-23T00:01:00.062Z,6.93
2023-05-23T00:03:29.148Z,8.57
2023-05-23T00:05:56.998Z,7.68
2023-05-23T00:08:23.987Z,7.55
2023-05-23T00:10:51.215Z,7.43
2023-05-23T00:13:18.890Z,6.75
2023-05-23T00:15:46.933Z,5.88
2023-05-23T00:18:14.376Z,6.38
2023-05-23T00:20:43.441Z,5.57
2023-05-23T00:23:14.103Z,6.07
2023-05-23T00:25:41.701Z,6.20
2023-05-23T00:28:08.942Z,5.90
2023-05-23T00:30:36.187Z,5.97
2023-05-23T00:33:03.789Z,5.40
2023-05-23T00:35:31.006Z,5.15
2023-05-23T00:37:59.114Z,5.40
2023-05-23T00:40:26.403Z,5.40
2023-05-23T00:42:53.422Z,5.63
2023-05-23T00:45:21.291Z,5.97
2023-05-23T00:47:48.807Z,5.72
2023-05-23T00:50:16.450Z,5.35
2023-05-23T00:52:45.736Z,5.75
2023-05-23T00:55:13.628Z,5.90
2023-05-23T00:57:43.214Z,5.50
2023-05-23T01:00:12.757Z,5.50
2023-05-23T01:02:45.818Z,5.55
2023-05-23T01:05:17.955Z,5.13
2023-05-23T01:07:47.301Z,6.20
2023-05-23T01:10:16.058Z,6.15
2023-05-23T01:12:56.632Z,6.38
2023-05-23T01:15:38.483Z,6.78
2023-05-23T01:18:10.940Z,6.30
2023-05-23T01:20:56.640Z,6.28
2023-05-23T01:23:44.969Z,5.90
2023-05-23T01:26:49.455Z,5.85
2023-05-23T01:32:00.495Z,6.35
2023-05-23T01:34:29.653Z,5.93
2023-05-23T01:36:56.911Z,6.25
2023-05-23T01:39:24.469Z,6.07
2023-05-23T01:41:53.742Z,6.32
2023-05-23T01:44:22.095Z,6.53
2023-05-23T01:46:49.179Z,6.72
2023-05-23T01:49:18.563Z,6.35
2023-05-23T01:51:46.906Z,6.60
2023-05-23T01:54:17.244Z,6.60
2023-05-23T01:56:45.078Z,6.75
2023-05-23T01:59:12.652Z,6.03
2023-05-23T02:01:40.122Z,6.43
2023-05-23T02:04:07.621Z,6.35
2023-05-23T02:06:34.721Z,7.22
2023-05-23T02:09:01.855Z,6.45
2023-05-23T02:11:28.920Z,6.03
2023-05-23T02:13:56.112Z,6.22
2023-05-23T02:16:23.637Z,7.25
2023-05-23T02:18:53.294Z,6.68
2023-05-23T02:21:20.431Z,7.10
2023-05-23T02:23:47.525Z,6.85
2023-05-23T02:26:18.228Z,7.55
2023-05-23T02:28:45.375Z,8.05
2023-05-23T02:31:12.452Z,8.23
2023-05-23T02:33:39.502Z,8.48
2023-05-23T02:36:07.197Z,8.23
2023-05-23T02:38:34.370Z,8.52
2023-05-23T02:41:01.664Z,7.68
2023-05-23T02:43:29.419Z,8.00
2023-05-23T02:45:57.190Z,8.30
2023-05-23T02:48:25.525Z,8.18
2023-05-23T02:50:52.936Z,8.20
2023-05-23T02:53:20.138Z,7.75
2023-05-23T02:55:47.557Z,8.27
2023-05-23T02:58:15.302Z,8.48
2023-05-23T03:00:44.366Z,7.47
2023-05-23T03:03:12.295Z,7.78
2023-05-23T03:05:40.445Z,7.85
2023-05-23T03:08:07.868Z,7.65
2023-05-23T03:10:35.278Z,7.88
2023-05-23T03:13:02.392Z,7.47
2023-05-23T03:15:30.404Z,7.43
2023-05-23T03:17:58.000Z,7.78
2023-05-23T03:20:25.289Z,7.78
2023-05-23T03:22:52.898Z,8.00
2023-05-23T03:25:20.063Z,8.18
2023-05-23T03:27:48.124Z,7.72
2023-05-23T03:30:15.405Z,7.70
2023-05-23T03:32:42.919Z,7.28
2023-05-23T03:35:10.424Z,8.48
2023-05-23T03:37:37.915Z,7.22
2023-05-23T03:40:05.513Z,8.45
2023-05-23T03:42:34.118Z,7.78
2023-05-23T03:45:01.463Z,7.75
2023-05-23T03:47:28.722Z,7.90
2023-05-23T03:49:58.663Z,8.32
2023-05-23T03:52:27.834Z,7.65
2023-05-23T03:54:55.066Z,7.97
2023-05-23T03:57:23.346Z,7.57
2023-05-23T03:59:51.338Z,7.43
2023-05-23T04:02:20.578Z,7.57
2023-05-23T04:04:47.722Z,8.15
2023-05-23T04:07:16.291Z,7.65
2023-05-23T04:09:45.640Z,8.27
2023-05-23T04:12:14.763Z,8.18
2023-05-23T04:14:42.455Z,8.50
2023-05-23T04:17:12.426Z,8.18
2023-05-23T04:19:39.755Z,8.35
2023-05-23T04:22:06.957Z,6.53
2023-05-23T04:24:34.477Z,6.13
2023-05-23T04:27:01.518Z,7.13
2023-05-23T04:29:34.920Z,6.97
2023-05-23T04:32:02.983Z,6.72
2023-05-23T04:34:31.046Z,7.00
2023-05-23T04:36:58.224Z,6.85
2023-05-23T04:39:25.973Z,7.38
2023-05-23T04:42:16.100Z,7.32
2023-05-23T04:44:53.123Z,7.15
2023-05-23T04:47:29.122Z,7.30
2023-05-23T04:50:05.788Z,7.05
2023-05-23T04:52:34.383Z,7.28
2023-05-23T04:55:02.536Z,6.90
2023-05-23T04:57:29.960Z,6.53
2023-05-23T04:59:58.240Z,7.00
2023-05-23T05:02:27.510Z,7.15
2023-05-23T05:04:54.741Z,6.78
2023-05-23T05:07:22.149Z,7.68
2023-05-23T05:09:49.367Z,8.43
2023-05-23T05:12:17.311Z,7.28
2023-05-23T05:14:44.334Z,7.60
2023-05-23T05:17:13.941Z,7.45
2023-05-23T05:19:52.859Z,7.70
2023-05-23T05:22:21.534Z,7.45
2023-05-23T05:24:48.919Z,7.10
2023-05-23T05:27:18.725Z,6.80
2023-05-23T05:29:48.450Z,7.22
2023-05-23T05:32:20.077Z,7.45
2023-05-23T05:34:49.491Z,7.00
2023-05-23T05:37:18.564Z,6.55
2023-05-23T05:39:46.118Z,6.05
2023-05-23T05:42:15.470Z,6.72
2023-05-23T05:44:43.046Z,6.22
2023-05-23T05:47:11.182Z,7.38
2023-05-23T05:49:38.819Z,6.72
2023-05-23T05:52:09.575Z,6.85
2023-05-23T05:54:38.688Z,6.93
2023-05-23T05:57:06.648Z,7.70
2023-05-23T05:59:33.796Z,7.43
2023-05-23T06:02:01.888Z,7.15
2023-05-23T06:04:29.722Z,7.40
2023-05-23T06:06:58.393Z,6.90
2023-05-23T06:09:26.008Z,8.00
2023-05-23T06:11:54.302Z,8.10
2023-05-23T06:14:21.475Z,8.35
2023-05-23T06:16:49.550Z,8.38
2023-05-23T06:19:17.948Z,7.30
2023-05-23T06:21:46.748Z,7.25
2023-05-23T06:24:16.529Z,8.20
2023-05-23T06:26:43.719Z,9.10
2023-05-23T06:29:10.823Z,9.07
2023-05-23T06:31:39.273Z,9.30
2023-05-23T06:34:06.347Z,9.02
2023-05-23T06:36:33.314Z,9.35
2023-05-23T06:39:00.352Z,9.40
2023-05-23T06:41:28.440Z,10.35
2023-05-23T06:43:56.012Z,8.38
2023-05-23T06:46:24.924Z,9.82
2023-05-23T06:49:02.666Z,8.45
2023-05-23T06:51:32.570Z,9.32
2023-05-23T06:54:00.961Z,9.38
2023-05-23T06:56:29.442Z,9.27
2023-05-23T06:58:59.399Z,9.50
2023-05-23T07:01:28.923Z,8.35
2023-05-23T07:03:56.044Z,9.60
2023-05-23T07:06:24.029Z,7.95
2023-05-23T07:08:51.670Z,7.90
2023-05-23T07:11:18.768Z,7.55
2023-05-23T07:13:52.652Z,7.40
2023-05-23T07:16:30.321Z,7.13
2023-05-23T07:19:04.580Z,8.07
2023-05-23T07:21:34.628Z,7.45
2023-05-23T07:24:02.739Z,7.63
2023-05-23T07:26:30.390Z,7.55
2023-05-23T07:28:57.509Z,7.13
2023-05-23T07:31:24.532Z,7.15
2023-05-23T07:33:57.123Z,6.35
2023-05-23T07:36:36.790Z,6.47
2023-05-23T07:39:07.639Z,6.18
2023-05-23T07:41:34.688Z,5.55
2023-05-23T07:44:04.238Z,6.32
2023-05-23T07:46:31.401Z,5.85
2023-05-23T07:48:58.491Z,5.72
2023-05-23T07:51:25.687Z,5.95
2023-05-23T07:53:53.219Z,4.88
2023-05-23T07:56:23.490Z,5.30
2023-05-23T07:58:50.942Z,5.60
2023-05-23T08:01:18.787Z,5.25
2023-05-23T08:03:57.719Z,4.80
2023-05-23T08:06:32.178Z,5.20
2023-05-23T08:09:02.441Z,4.13
2023-05-23T08:11:50.225Z,4.03
2023-05-23T08:14:17.327Z,4.40
2023-05-23T08:17:08.691Z,4.03
2023-05-23T08:19:36.677Z,4.15
2023-05-23T08:22:05.061Z,4.20
2023-05-23T08:24:34.395Z,3.70
2023-05-23T08:27:01.829Z,3.88
2023-05-23T08:29:28.988Z,4.13
2023-05-23T08:31:56.609Z,3.97
2023-05-23T08:34:24.056Z,3.78
2023-05-23T08:36:51.415Z,4.25
2023-05-23T08:39:21.137Z,3.97
2023-05-23T08:42:05.522Z,3.75
2023-05-23T08:44:33.133Z,4.13
2023-05-23T08:47:07.968Z,3.90
2023-05-23T08:49:46.520Z,3.78
2023-05-23T08:52:18.201Z,3.67
2023-05-23T08:54:48.489Z,3.40
2023-05-23T08:57:17.802Z,3.17
2023-05-23T08:59:57.171Z,3.67
2023-05-23T09:02:27.067Z,2.75
2023-05-23T09:05:03.478Z,3.88
2023-05-23T09:07:31.180Z,3.38
2023-05-23T09:09:58.856Z,3.33
2023-05-23T09:12:26.273Z,3.10
2023-05-23T09:14:54.639Z,2.30
2023-05-23T09:17:25.760Z,2.40
2023-05-23T09:19:54.149Z,2.13
2023-05-23T09:22:37.741Z,2.30
2023-05-23T09:25:11.664Z,2.53
2023-05-23T09:27:45.765Z,2.42
2023-05-23T09:30:15.468Z,2.78
2023-05-23T09:32:58.766Z,2.40
2023-05-23T09:35:28.842Z,2.33
2023-05-23T09:38:02.005Z,2.28
2023-05-23T09:40:33.909Z,1.98
2023-05-23T09:43:05.057Z,2.08
2023-05-23T09:45:33.340Z,1.95
2023-05-23T09:48:02.499Z,1.75
2023-05-23T09:50:33.881Z,2.15
2023-05-23T09:53:02.889Z,1.80
2023-05-23T09:55:31.175Z,1.92
2023-05-23T09:57:59.962Z,1.70
2023-05-23T10:00:29.369Z,1.67
2023-05-23T10:03:25.123Z,2.13
2023-05-23T10:05:59.212Z,1.80
2023-05-23T10:08:39.434Z,1.90
2023-05-23T10:11:17.307Z,1.85
2023-05-23T10:13:47.084Z,1.80
2023-05-23T10:16:31.813Z,1.90
2023-05-23T10:19:07.390Z,1.85
2023-05-23T10:21:40.974Z,2.75
2023-05-23T10:24:08.898Z,1.60
2023-05-23T10:26:37.719Z,1.80
2023-05-23T10:29:08.343Z,1.70
2023-05-23T10:31:36.632Z,1.70
2023-05-23T10:34:15.016Z,1.58
2023-05-23T10:37:05.143Z,1.65
2023-05-23T10:40:02.589Z,2.00
2023-05-23T10:42:50.583Z,1.90
2023-05-23T10:45:25.178Z,1.70
2023-05-23T10:47:54.093Z,1.80
2023-05-23T10:50:33.727Z,2.00
2023-05-23T10:53:04.237Z,1.70
2023-05-23T10:55:33.465Z,1.83
2023-05-23T10:58:20.696Z,2.10
2023-05-23T11:00:53.893Z,2.05
2023-05-23T11:03:38.537Z,2.00
2023-05-23T11:06:07.805Z,2.20
2023-05-23T11:08:47.801Z,2.25
2023-05-23T11:11:19.139Z,2.20
2023-05-23T11:13:57.993Z,2.42
2023-05-23T11:16:47.224Z,2.40
2023-05-23T11:19:20.752Z,2.47
2023-05-23T11:21:54.754Z,2.42
2023-05-23T11:24:22.750Z,2.80
2023-05-23T11:26:54.692Z,3.33
2023-05-23T11:29:22.153Z,2.38
2023-05-23T11:31:51.425Z,2.15
2023-05-23T11:34:19.517Z,2.00
2023-05-23T11:36:47.273Z,2.38
2023-05-23T11:39:16.036Z,2.30
2023-05-23T11:41:44.191Z,2.15
2023-05-23T11:44:12.597Z,3.20
2023-05-23T11:46:40.922Z,2.47
2023-05-23T11:49:12.196Z,2.58
2023-05-23T11:51:39.787Z,2.70
2023-05-23T11:54:09.843Z,2.50
2023-05-23T11:56:41.721Z,2.53
2023-05-23T11:59:10.046Z,2.58
2023-05-23T12:01:37.867Z,2.47
2023-05-23T12:04:14.362Z,2.45
2023-05-23T12:06:42.441Z,2.53
2023-05-23T12:09:12.926Z,2.55
2023-05-23T12:11:41.922Z,2.60
2023-05-23T12:14:14.272Z,3.15
2023-05-23T12:16:47.477Z,2.50
2023-05-23T12:19:17.635Z,2.30
2023-05-23T12:21:49.689Z,2.40
2023-05-23T12:24:18.941Z,3.00
2023-05-23T12:26:48.875Z,2.40
2023-05-23T12:29:16.794Z,2.20
2023-05-23T12:31:45.285Z,2.00
2023-05-23T12:34:13.604Z,2.33
2023-05-23T12:36:49.180Z,2.22
2023-05-23T12:39:17.174Z,2.13
2023-05-23T12:41:45.510Z,2.10
2023-05-23T12:44:16.795Z,2.22
2023-05-23T12:46:44.154Z,2.10
2023-05-23T12:49:13.351Z,2.42
2023-05-23T12:51:41.150Z,2.25
2023-05-23T12:54:09.475Z,2.00
2023-05-23T12:56:36.548Z,2.20
2023-05-23T12:59:03.814Z,2.40
2023-05-23T13:01:31.493Z,2.15
2023-05-23T13:03:58.921Z,2.00
2023-05-23T13:06:27.001Z,2.65
2023-05-23T13:08:55.151Z,2.70
2023-05-23T13:11:25.177Z,2.58
2023-05-23T13:13:54.209Z,2.80
2023-05-23T13:16:21.586Z,2.60
2023-05-23T13:18:48.716Z,2.58
2023-05-23T13:21:16.166Z,2.50
2023-05-23T13:23:44.379Z,2.10
2023-05-23T13:26:11.909Z,2.28
2023-05-23T13:28:39.315Z,2.00
2023-05-23T13:31:11.110Z,2.10
2023-05-23T13:33:38.532Z,1.70
2023-05-23T13:36:05.995Z,1.80
2023-05-23T13:38:33.222Z,1.70
2023-05-23T13:41:00.389Z,2.00
2023-05-23T13:43:27.604Z,1.60
2023-05-23T13:45:54.620Z,2.03
2023-05-23T13:48:23.230Z,1.88
2023-05-23T13:50:51.400Z,2.08
2023-05-23T13:53:18.780Z,2.10
2023-05-23T13:55:45.937Z,1.90
2023-05-23T13:58:14.156Z,1.92
2023-05-23T14:00:46.471Z,2.13
2023-05-23T14:03:15.911Z,1.90
2023-05-23T14:05:44.386Z,2.00
2023-05-23T14:08:13.702Z,1.83
2023-05-23T14:10:41.748Z,2.03
2023-05-23T14:13:09.527Z,2.00
2023-05-23T14:15:38.798Z,2.17
2023-05-23T14:18:06.180Z,1.73
2023-05-23T14:20:34.343Z,2.00
2023-05-23T14:23:01.487Z,1.90
2023-05-23T14:25:29.719Z,2.17
2023-05-23T14:27:59.441Z,2.13
2023-05-23T14:30:27.018Z,1.85
2023-05-23T14:32:54.674Z,1.88
2023-05-23T14:35:26.130Z,2.00
2023-05-23T14:37:53.229Z,1.75
2023-05-23T14:40:20.752Z,1.73
2023-05-23T14:42:49.366Z,2.10
2023-05-23T14:45:18.855Z,1.98
2023-05-23T14:47:46.744Z,1.90
2023-05-23T14:50:14.009Z,1.90
2023-05-23T14:52:41.262Z,1.80
2023-05-23T14:55:08.883Z,1.40
2023-05-23T14:57:36.023Z,1.50
2023-05-23T15:00:06.095Z,1.55
2023-05-23T15:02:34.753Z,1.60
2023-05-23T15:05:04.991Z,1.50
2023-05-23T15:07:32.967Z,1.50
2023-05-23T15:10:00.230Z,1.40
2023-05-23T15:12:29.011Z,1.40
2023-05-23T15:15:03.841Z,1.50
2023-05-23T15:17:34.288Z,1.80
2023-05-23T15:20:03.791Z,1.73
2023-05-23T15:25:03.465Z,1.50
2023-05-23T15:27:30.618Z,1.70
2023-05-23T15:29:59.637Z,1.42
2023-05-23T15:32:27.473Z,1.55
2023-05-23T15:34:55.541Z,1.67
2023-05-23T15:37:25.660Z,1.60
2023-05-23T15:39:52.919Z,1.80
2023-05-23T15:42:21.277Z,1.67
2023-05-23T15:44:48.587Z,1.85
2023-05-23T15:47:15.699Z,2.10
2023-05-23T15:49:42.840Z,1.70
2023-05-23T15:52:10.001Z,1.77
2023-05-23T15:54:37.046Z,2.00
2023-05-23T15:57:04.736Z,1.90
2023-05-23T15:59:32.141Z,1.60
2023-05-23T16:01:59.449Z,1.65
2023-05-23T16:04:27.081Z,1.70
2023-05-23T16:06:56.751Z,1.52
2023-05-23T16:09:24.680Z,1.80
2023-05-23T16:11:53.107Z,1.52
2023-05-23T16:14:20.271Z,1.20
2023-05-23T16:16:47.663Z,1.20
2023-05-23T16:19:14.901Z,1.20
2023-05-23T16:21:42.380Z,1.05
2023-05-23T16:24:09.620Z,1.10
2023-05-23T16:26:36.969Z,1.10
2023-05-23T16:29:05.052Z,1.08
2023-05-23T16:31:33.341Z,1.20
2023-05-23T16:34:00.774Z,1.10
2023-05-23T16:36:28.827Z,1.10
2023-05-23T16:38:57.161Z,1.02
2023-05-23T16:41:26.117Z,1.10
2023-05-23T16:43:53.493Z,1.25
2023-05-23T16:46:22.759Z,1.02
2023-05-23T16:48:50.353Z,1.17
2023-05-23T16:51:17.767Z,1.10
2023-05-23T16:53:45.120Z,1.00
2023-05-23T16:56:12.313Z,1.10
2023-05-23T16:58:39.653Z,1.10
2023-05-23T17:01:07.919Z,1.10
2023-05-23T17:03:35.549Z,0.90
2023-05-23T17:06:03.533Z,1.20
2023-05-23T17:08:31.023Z,1.10
2023-05-23T17:10:58.285Z,1.25
2023-05-23T17:13:25.814Z,1.33
2023-05-23T17:15:53.051Z,1.30
2023-05-23T17:18:20.863Z,1.50
2023-05-23T17:20:49.647Z,1.55
2023-05-23T17:23:19.273Z,1.75
2023-05-23T17:25:47.535Z,1.60
2023-05-23T17:28:14.777Z,2.10
2023-05-23T17:30:43.031Z,1.90
2023-05-23T17:33:12.235Z,2.33
2023-05-23T17:35:40.133Z,2.17
2023-05-23T17:38:07.776Z,2.05
2023-05-23T17:40:36.066Z,2.10
2023-05-23T17:43:04.953Z,2.35
2023-05-23T17:45:32.082Z,2.30
2023-05-23T17:48:03.999Z,1.95
2023-05-23T17:50:32.525Z,1.90
2023-05-23T17:53:00.978Z,1.40
2023-05-23T17:55:30.082Z,1.40
2023-05-23T17:57:57.457Z,1.20
2023-05-23T18:00:25.398Z,1.20
2023-05-23T18:02:53.228Z,1.50
2023-05-23T18:05:24.178Z,1.08
2023-05-23T18:07:53.129Z,0.90
2023-05-23T18:10:20.298Z,1.00
2023-05-23T18:12:48.754Z,0.95
2023-05-23T18:15:17.668Z,0.90
2023-05-23T18:17:45.175Z,0.93
2023-05-23T18:20:13.673Z,1.20
2023-05-23T18:22:41.531Z,1.05
2023-05-23T18:25:10.476Z,1.00
2023-05-23T18:27:38.247Z,1.10
2023-05-23T18:30:06.737Z,1.00
2023-05-23T18:32:33.980Z,1.20
2023-05-23T18:35:02.744Z,1.30
2023-05-23T18:37:30.084Z,1.52
2023-05-23T18:39:59.659Z,1.70
2023-05-23T18:42:33.072Z,1.88
2023-05-23T18:45:00.138Z,3.35
2023-05-23T18:47:28.079Z,2.70
2023-05-23T18:49:56.184Z,2.53
2023-05-23T18:52:24.417Z,2.33
